sensor_id;sensor_type;location;lat;lon;timestamp;P1;durP1;ratioP1;P2;durP2;ratioP2
30287;SDS011;17103;48.316;11.558;2023-07-22T00:00:31;3.28;;;0.88;;
30287;SDS011;17103;48.316;11.558;2023-07-22T00:02:57;1.58;;;0.98;;
30287;SDS011;17103;48.316;11.558;2023-07-22T00:05:23;1.77;;;1.05;;
30287;SDS011;17103;48.316;11.558;2023-07-22T00:07:51;1.50;;;0.80;;
30287;SDS011;17103;48.316;11.558;2023-07-22T00:10:17;1.85;;;1.00;;
30287;SDS011;17103;48.316;11.558;2023-07-22T00:12:43;1.58;;;0.80;;
30287;SDS011;17103;48.316;11.558;2023-07-22T00:15:09;1.38;;;1.00;;
30287;SDS011;17103;48.316;11.558;2023-07-22T00:17:37;1.20;;;0.90;;
30287;SDS011;17103;48.316;11.558;2023-07-22T00:20:06;1.27;;;0.85;;
30287;SDS011;17103;48.316;11.558;2023-07-22T00:22:36;2.50;;;1.10;;
30287;SDS011;17103;48.316;11.558;2023-07-22T00:25:02;2.55;;;1.13;;
30287;SDS011;17103;48.316;11.558;2023-07-22T00:27:29;3.80;;;1.40;;
30287;SDS011;17103;48.316;11.558;2023-07-22T00:29:54;1.67;;;0.80;;
30287;SDS011;17103;48.316;11.558;2023-07-22T00:32:20;2.15;;;1.25;;
30287;SDS011;17103;48.316;11.558;2023-07-22T00:34:45;3.28;;;1.58;;
30287;SDS011;17103;48.316;11.558;2023-07-22T00:37:11;1.90;;;1.42;;
30287;SDS011;17103;48.316;11.558;2023-07-22T00:39:36;2.22;;;1.35;;
30287;SDS011;17103;48.316;11.558;2023-07-22T00:42:02;1.63;;;1.00;;
30287;SDS011;17103;48.316;11.558;2023-07-22T00:44:28;2.03;;;1.10;;
30287;SDS011;17103;48.316;11.558;2023-07-22T00:46:54;1.42;;;0.80;;
30287;SDS011;17103;48.316;11.558;2023-07-22T00:49:22;1.67;;;1.10;;
30287;SDS011;17103;48.316;11.558;2023-07-22T00:51:50;1.65;;;0.90;;
30287;SDS011;17103;48.316;11.558;2023-07-22T00:54:16;1.67;;;1.10;;
30287;SDS011;17103;48.316;11.558;2023-07-22T00:56:42;1.58;;;1.08;;
30287;SDS011;17103;48.316;11.558;2023-07-22T00:59:09;2.53;;;1.10;;
30287;SDS011;17103;48.316;11.558;2023-07-22T01:01:35;2.00;;;0.93;;
30287;SDS011;17103;48.316;11.558;2023-07-22T01:04:01;1.98;;;1.38;;
30287;SDS011;17103;48.316;11.558;2023-07-22T01:06:26;2.28;;;1.48;;
30287;SDS011;17103;48.316;11.558;2023-07-22T01:08:56;2.38;;;0.93;;
30287;SDS011;17103;48.316;11.558;2023-07-22T01:11:23;3.75;;;1.60;;
30287;SDS011;17103;48.316;11.558;2023-07-22T01:13:49;2.58;;;1.25;;
30287;SDS011;17103;48.316;11.558;2023-07-22T01:16:14;3.22;;;1.23;;
30287;SDS011;17103;48.316;11.558;2023-07-22T01:18:41;4.63;;;1.70;;
30287;SDS011;17103;48.316;11.558;2023-07-22T01:21:07;2.67;;;1.17;;
30287;SDS011;17103;48.316;11.558;2023-07-22T01:23:34;2.22;;;1.23;;
30287;SDS011;17103;48.316;11.558;2023-07-22T01:26:01;2.25;;;0.80;;
30287;SDS011;17103;48.316;11.558;2023-07-22T01:28:27;1.48;;;1.05;;
30287;SDS011;17103;48.316;11.558;2023-07-22T01:30:53;1.50;;;0.82;;
30287;SDS011;17103;48.316;11.558;2023-07-22T01:33:19;2.28;;;1.40;;
30287;SDS011;17103;48.316;11.558;2023-07-22T01:35:45;1.50;;;0.80;;
30287;SDS011;17103;48.316;11.558;2023-07-22T01:38:11;1.65;;;0.90;;
30287;SDS011;17103;48.316;11.558;2023-07-22T01:40:36;5.60;;;1.30;;
30287;SDS011;17103;48.316;11.558;2023-07-22T01:43:03;1.95;;;0.98;;
30287;SDS011;17103;48.316;11.558;2023-07-22T01:45:28;2.50;;;1.13;;
30287;SDS011;17103;48.316;11.558;2023-07-22T01:47:54;3.40;;;1.60;;
30287;SDS011;17103;48.316;11.558;2023-07-22T01:50:19;2.30;;;1.33;;
30287;SDS011;17103;48.316;11.558;2023-07-22T01:52:45;2.28;;;1.10;;
30287;SDS011;17103;48.316;11.558;2023-07-22T01:55:13;4.55;;;1.88;;
30287;SDS011;17103;48.316;11.558;2023-07-22T01:57:39;2.40;;;1.45;;
30287;SDS011;17103;48.316;11.558;2023-07-22T02:00:06;4.70;;;1.65;;
30287;SDS011;17103;48.316;11.558;2023-07-22T02:02:33;1.65;;;1.30;;
30287;SDS011;17103;48.316;11.558;2023-07-22T02:04:59;2.97;;;1.80;;
30287;SDS011;17103;48.316;11.558;2023-07-22T02:07:25;2.50;;;1.38;;
30287;SDS011;17103;48.316;11.558;2023-07-22T02:09:51;2.55;;;1.50;;
30287;SDS011;17103;48.316;11.558;2023-07-22T02:12:17;2.35;;;1.77;;
30287;SDS011;17103;48.316;11.558;2023-07-22T02:14:43;4.15;;;1.65;;
30287;SDS011;17103;48.316;11.558;2023-07-22T02:17:08;3.97;;;1.75;;
30287;SDS011;17103;48.316;11.558;2023-07-22T02:19:35;3.63;;;2.05;;
30287;SDS011;17103;48.316;11.558;2023-07-22T02:22:02;2.55;;;1.75;;
30287;SDS011;17103;48.316;11.558;2023-07-22T02:24:29;4.75;;;1.98;;
30287;SDS011;17103;48.316;11.558;2023-07-22T02:26:55;3.70;;;1.75;;
30287;SDS011;17103;48.316;11.558;2023-07-22T02:29:20;4.53;;;2.00;;
30287;SDS011;17103;48.316;11.558;2023-07-22T02:31:46;4.47;;;2.05;;
30287;SDS011;17103;48.316;11.558;2023-07-22T02:34:11;7.38;;;2.40;;
30287;SDS011;17103;48.316;11.558;2023-07-22T02:36:37;3.53;;;2.05;;
30287;SDS011;17103;48.316;11.558;2023-07-22T02:39:02;4.15;;;2.55;;
30287;SDS011;17103;48.316;11.558;2023-07-22T02:41:28;5.18;;;2.55;;
30287;SDS011;17103;48.316;11.558;2023-07-22T02:43:54;3.33;;;2.17;;
30287;SDS011;17103;48.316;11.558;2023-07-22T02:46:19;2.85;;;1.63;;
30287;SDS011;17103;48.316;11.558;2023-07-22T02:48:45;3.22;;;1.88;;
30287;SDS011;17103;48.316;11.558;2023-07-22T02:51:10;3.63;;;2.10;;
30287;SDS011;17103;48.316;11.558;2023-07-22T02:53:36;3.05;;;1.70;;
30287;SDS011;17103;48.316;11.558;2023-07-22T02:56:02;6.03;;;2.08;;
30287;SDS011;17103;48.316;11.558;2023-07-22T02:58:29;3.00;;;1.88;;
30287;SDS011;17103;48.316;11.558;2023-07-22T03:00:55;3.30;;;2.05;;
30287;SDS011;17103;48.316;11.558;2023-07-22T03:03:22;3.65;;;2.55;;
30287;SDS011;17103;48.316;11.558;2023-07-22T03:05:48;3.90;;;2.17;;
30287;SDS011;17103;48.316;11.558;2023-07-22T03:08:14;5.00;;;2.72;;
30287;SDS011;17103;48.316;11.558;2023-07-22T03:10:39;2.75;;;2.40;;
30287;SDS011;17103;48.316;11.558;2023-07-22T03:13:05;5.35;;;2.80;;
30287;SDS011;17103;48.316;11.558;2023-07-22T03:15:32;3.97;;;2.17;;
30287;SDS011;17103;48.316;11.558;2023-07-22T03:17:58;3.13;;;2.20;;
30287;SDS011;17103;48.316;11.558;2023-07-22T03:20:24;3.55;;;2.33;;
30287;SDS011;17103;48.316;11.558;2023-07-22T03:22:50;3.58;;;2.38;;
30287;SDS011;17103;48.316;11.558;2023-07-22T03:25:16;3.17;;;2.60;;
30287;SDS011;17103;48.316;11.558;2023-07-22T03:27:43;3.08;;;2.20;;
30287;SDS011;17103;48.316;11.558;2023-07-22T03:30:11;3.15;;;1.77;;
30287;SDS011;17103;48.316;11.558;2023-07-22T03:32:40;2.47;;;2.08;;
30287;SDS011;17103;48.316;11.558;2023-07-22T03:35:07;3.20;;;1.88;;
30287;SDS011;17103;48.316;11.558;2023-07-22T03:37:36;4.93;;;2.65;;
30287;SDS011;17103;48.316;11.558;2023-07-22T03:40:03;4.93;;;2.17;;
30287;SDS011;17103;48.316;11.558;2023-07-22T03:42:44;3.00;;;2.22;;
30287;SDS011;17103;48.316;11.558;2023-07-22T03:45:11;5.25;;;2.88;;
30287;SDS011;17103;48.316;11.558;2023-07-22T03:47:37;3.75;;;2.40;;
30287;SDS011;17103;48.316;11.558;2023-07-22T03:50:04;3.15;;;2.22;;
30287;SDS011;17103;48.316;11.558;2023-07-22T03:52:30;3.55;;;2.50;;
30287;SDS011;17103;48.316;11.558;2023-07-22T03:54:56;2.97;;;2.35;;
30287;SDS011;17103;48.316;11.558;2023-07-22T03:57:25;4.20;;;2.10;;
30287;SDS011;17103;48.316;11.558;2023-07-22T03:59:53;3.80;;;1.80;;
30287;SDS011;17103;48.316;11.558;2023-07-22T04:02:19;3.63;;;2.75;;
30287;SDS011;17103;48.316;11.558;2023-07-22T04:04:44;3.70;;;2.67;;
30287;SDS011;17103;48.316;11.558;2023-07-22T04:07:10;4.15;;;2.83;;
30287;SDS011;17103;48.316;11.558;2023-07-22T04:09:35;4.60;;;2.40;;
30287;SDS011;17103;48.316;11.558;2023-07-22T04:12:01;7.07;;;2.58;;
30287;SDS011;17103;48.316;11.558;2023-07-22T04:14:27;3.83;;;2.47;;
30287;SDS011;17103;48.316;11.558;2023-07-22T04:16:52;3.17;;;2.75;;
30287;SDS011;17103;48.316;11.558;2023-07-22T04:19:18;5.00;;;3.17;;
30287;SDS011;17103;48.316;11.558;2023-07-22T04:21:43;5.07;;;2.85;;
30287;SDS011;17103;48.316;11.558;2023-07-22T04:24:09;3.83;;;2.30;;
30287;SDS011;17103;48.316;11.558;2023-07-22T04:26:35;3.55;;;2.20;;
30287;SDS011;17103;48.316;11.558;2023-07-22T04:29:01;4.68;;;2.20;;
30287;SDS011;17103;48.316;11.558;2023-07-22T04:31:26;2.42;;;2.08;;
30287;SDS011;17103;48.316;11.558;2023-07-22T04:33:52;3.00;;;1.90;;
30287;SDS011;17103;48.316;11.558;2023-07-22T04:36:18;7.30;;;2.63;;
30287;SDS011;17103;48.316;11.558;2023-07-22T04:38:44;5.65;;;2.28;;
30287;SDS011;17103;48.316;11.558;2023-07-22T04:41:09;2.00;;;1.80;;
30287;SDS011;17103;48.316;11.558;2023-07-22T04:43:35;3.67;;;2.45;;
30287;SDS011;17103;48.316;11.558;2023-07-22T04:46:00;3.17;;;2.00;;
30287;SDS011;17103;48.316;11.558;2023-07-22T04:48:26;3.80;;;2.15;;
30287;SDS011;17103;48.316;11.558;2023-07-22T04:50:51;3.50;;;2.75;;
30287;SDS011;17103;48.316;11.558;2023-07-22T04:53:17;5.10;;;2.80;;
30287;SDS011;17103;48.316;11.558;2023-07-22T04:55:43;4.53;;;2.20;;
30287;SDS011;17103;48.316;11.558;2023-07-22T04:58:09;4.22;;;2.35;;
30287;SDS011;17103;48.316;11.558;2023-07-22T05:00:36;3.10;;;2.38;;
30287;SDS011;17103;48.316;11.558;2023-07-22T05:03:02;5.70;;;3.00;;
30287;SDS011;17103;48.316;11.558;2023-07-22T05:05:28;4.40;;;3.13;;
30287;SDS011;17103;48.316;11.558;2023-07-22T05:07:54;3.42;;;2.42;;
30287;SDS011;17103;48.316;11.558;2023-07-22T05:10:20;3.20;;;2.17;;
30287;SDS011;17103;48.316;11.558;2023-07-22T05:12:46;5.45;;;3.10;;
30287;SDS011;17103;48.316;11.558;2023-07-22T05:15:12;4.03;;;2.78;;
30287;SDS011;17103;48.316;11.558;2023-07-22T05:17:38;4.38;;;3.00;;
30287;SDS011;17103;48.316;11.558;2023-07-22T05:20:04;3.15;;;2.45;;
30287;SDS011;17103;48.316;11.558;2023-07-22T05:22:31;3.30;;;2.30;;
30287;SDS011;17103;48.316;11.558;2023-07-22T05:24:57;7.00;;;2.72;;
30287;SDS011;17103;48.316;11.558;2023-07-22T05:27:24;4.63;;;2.20;;
30287;SDS011;17103;48.316;11.558;2023-07-22T05:29:49;4.15;;;3.00;;
30287;SDS011;17103;48.316;11.558;2023-07-22T05:32:15;3.30;;;1.85;;
30287;SDS011;17103;48.316;11.558;2023-07-22T05:34:41;3.30;;;2.22;;
30287;SDS011;17103;48.316;11.558;2023-07-22T05:37:06;3.08;;;1.90;;
30287;SDS011;17103;48.316;11.558;2023-07-22T05:39:32;3.38;;;2.30;;
30287;SDS011;17103;48.316;11.558;2023-07-22T05:41:58;5.00;;;3.05;;
30287;SDS011;17103;48.316;11.558;2023-07-22T05:44:23;3.88;;;2.70;;
30287;SDS011;17103;48.316;11.558;2023-07-22T05:46:49;3.92;;;2.38;;
30287;SDS011;17103;48.316;11.558;2023-07-22T05:49:15;4.78;;;2.05;;
30287;SDS011;17103;48.316;11.558;2023-07-22T05:51:40;4.50;;;2.60;;
30287;SDS011;17103;48.316;11.558;2023-07-22T05:54:06;2.70;;;2.40;;
30287;SDS011;17103;48.316;11.558;2023-07-22T05:56:31;5.95;;;2.20;;
30287;SDS011;17103;48.316;11.558;2023-07-22T05:58:57;3.63;;;2.50;;
30287;SDS011;17103;48.316;11.558;2023-07-22T06:01:23;2.95;;;2.20;;
30287;SDS011;17103;48.316;11.558;2023-07-22T06:03:49;2.72;;;2.10;;
30287;SDS011;17103;48.316;11.558;2023-07-22T06:06:15;5.65;;;1.98;;
30287;SDS011;17103;48.316;11.558;2023-07-22T06:08:41;3.47;;;2.30;;
30287;SDS011;17103;48.316;11.558;2023-07-22T06:11:07;4.03;;;1.90;;
30287;SDS011;17103;48.316;11.558;2023-07-22T06:13:32;4.72;;;2.03;;
30287;SDS011;17103;48.316;11.558;2023-07-22T06:15:58;6.32;;;2.25;;
30287;SDS011;17103;48.316;11.558;2023-07-22T06:18:23;2.72;;;1.95;;
30287;SDS011;17103;48.316;11.558;2023-07-22T06:20:49;2.42;;;1.50;;
30287;SDS011;17103;48.316;11.558;2023-07-22T06:23:15;5.75;;;2.10;;
30287;SDS011;17103;48.316;11.558;2023-07-22T06:25:41;2.38;;;1.50;;
30287;SDS011;17103;48.316;11.558;2023-07-22T06:28:06;2.28;;;1.50;;
30287;SDS011;17103;48.316;11.558;2023-07-22T06:30:33;4.35;;;1.45;;
30287;SDS011;17103;48.316;11.558;2023-07-22T06:32:58;2.50;;;1.60;;
30287;SDS011;17103;48.316;11.558;2023-07-22T06:35:24;2.95;;;1.35;;
30287;SDS011;17103;48.316;11.558;2023-07-22T06:37:49;3.03;;;1.38;;
30287;SDS011;17103;48.316;11.558;2023-07-22T06:40:15;1.67;;;1.35;;
30287;SDS011;17103;48.316;11.558;2023-07-22T06:42:41;4.18;;;1.30;;
30287;SDS011;17103;48.316;11.558;2023-07-22T06:45:06;3.70;;;1.15;;
30287;SDS011;17103;48.316;11.558;2023-07-22T06:47:32;3.35;;;1.40;;
30287;SDS011;17103;48.316;11.558;2023-07-22T06:49:59;2.65;;;1.40;;
30287;SDS011;17103;48.316;11.558;2023-07-22T06:52:25;3.17;;;1.70;;
30287;SDS011;17103;48.316;11.558;2023-07-22T06:54:50;1.92;;;1.23;;
30287;SDS011;17103;48.316;11.558;2023-07-22T06:57:16;2.47;;;1.15;;
30287;SDS011;17103;48.316;11.558;2023-07-22T06:59:42;2.50;;;1.00;;
30287;SDS011;17103;48.316;11.558;2023-07-22T07:02:07;1.50;;;1.10;;
30287;SDS011;17103;48.316;11.558;2023-07-22T07:04:33;1.60;;;1.13;;
30287;SDS011;17103;48.316;11.558;2023-07-22T07:07:01;1.95;;;1.00;;
30287;SDS011;17103;48.316;11.558;2023-07-22T07:09:27;2.45;;;1.10;;
30287;SDS011;17103;48.316;11.558;2023-07-22T07:11:53;2.80;;;1.05;;
30287;SDS011;17103;48.316;11.558;2023-07-22T07:14:22;1.95;;;1.30;;
30287;SDS011;17103;48.316;11.558;2023-07-22T07:16:48;1.63;;;1.40;;
30287;SDS011;17103;48.316;11.558;2023-07-22T07:19:14;3.47;;;1.35;;
30287;SDS011;17103;48.316;11.558;2023-07-22T07:21:40;3.63;;;1.20;;
30287;SDS011;17103;48.316;11.558;2023-07-22T07:24:05;3.05;;;1.25;;
30287;SDS011;17103;48.316;11.558;2023-07-22T07:26:31;2.47;;;1.45;;
30287;SDS011;17103;48.316;11.558;2023-07-22T07:28:56;2.63;;;1.50;;
30287;SDS011;17103;48.316;11.558;2023-07-22T07:31:22;2.42;;;1.10;;
30287;SDS011;17103;48.316;11.558;2023-07-22T07:33:48;1.58;;;1.00;;
30287;SDS011;17103;48.316;11.558;2023-07-22T07:36:13;1.73;;;1.00;;
30287;SDS011;17103;48.316;11.558;2023-07-22T07:38:40;1.98;;;1.10;;
30287;SDS011;17103;48.316;11.558;2023-07-22T07:41:06;3.22;;;1.30;;
30287;SDS011;17103;48.316;11.558;2023-07-22T07:43:37;3.72;;;1.23;;
30287;SDS011;17103;48.316;11.558;2023-07-22T07:46:19;1.30;;;1.00;;
30287;SDS011;17103;48.316;11.558;2023-07-22T07:48:50;1.70;;;0.95;;
30287;SDS011;17103;48.316;11.558;2023-07-22T07:51:23;2.95;;;0.95;;
30287;SDS011;17103;48.316;11.558;2023-07-22T07:53:51;1.95;;;0.98;;
30287;SDS011;17103;48.316;11.558;2023-07-22T07:56:20;3.35;;;1.00;;
30287;SDS011;17103;48.316;11.558;2023-07-22T07:58:53;2.08;;;0.90;;
30287;SDS011;17103;48.316;11.558;2023-07-22T08:01:20;2.17;;;0.77;;
30287;SDS011;17103;48.316;11.558;2023-07-22T08:03:50;1.73;;;0.80;;
30287;SDS011;17103;48.316;11.558;2023-07-22T08:06:15;2.47;;;1.38;;
30287;SDS011;17103;48.316;11.558;2023-07-22T08:08:41;1.70;;;0.95;;
30287;SDS011;17103;48.316;11.558;2023-07-22T08:11:08;3.75;;;1.60;;
30287;SDS011;17103;48.316;11.558;2023-07-22T08:13:42;2.90;;;1.10;;
30287;SDS011;17103;48.316;11.558;2023-07-22T08:16:10;1.02;;;0.70;;
30287;SDS011;17103;48.316;11.558;2023-07-22T08:18:38;1.20;;;0.77;;
30287;SDS011;17103;48.316;11.558;2023-07-22T08:21:05;0.93;;;0.60;;
30287;SDS011;17103;48.316;11.558;2023-07-22T08:23:32;1.80;;;0.90;;
30287;SDS011;17103;48.316;11.558;2023-07-22T08:25:59;1.83;;;1.00;;
30287;SDS011;17103;48.316;11.558;2023-07-22T08:28:25;2.67;;;1.00;;
30287;SDS011;17103;48.316;11.558;2023-07-22T08:30:54;1.42;;;0.95;;
30287;SDS011;17103;48.316;11.558;2023-07-22T08:33:21;2.60;;;0.90;;
30287;SDS011;17103;48.316;11.558;2023-07-22T08:35:53;1.55;;;0.98;;
30287;SDS011;17103;48.316;11.558;2023-07-22T08:38:18;4.60;;;0.90;;
30287;SDS011;17103;48.316;11.558;2023-07-22T08:40:47;3.22;;;1.00;;
30287;SDS011;17103;48.316;11.558;2023-07-22T08:43:21;1.20;;;0.68;;
30287;SDS011;17103;48.316;11.558;2023-07-22T08:45:51;1.05;;;0.90;;
30287;SDS011;17103;48.316;11.558;2023-07-22T08:48:18;1.77;;;0.90;;
30287;SDS011;17103;48.316;11.558;2023-07-22T08:50:59;2.15;;;0.90;;
30287;SDS011;17103;48.316;11.558;2023-07-22T08:53:32;5.13;;;1.00;;
30287;SDS011;17103;48.316;11.558;2023-07-22T08:55:58;1.58;;;0.63;;
30287;SDS011;17103;48.316;11.558;2023-07-22T08:58:24;3.42;;;0.98;;
30287;SDS011;17103;48.316;11.558;2023-07-22T09:00:50;1.90;;;0.90;;
30287;SDS011;17103;48.316;11.558;2023-07-22T09:03:16;2.40;;;1.02;;
30287;SDS011;17103;48.316;11.558;2023-07-22T09:05:43;3.05;;;1.15;;
30287;SDS011;17103;48.316;11.558;2023-07-22T09:08:10;1.73;;;0.70;;
30287;SDS011;17103;48.316;11.558;2023-07-22T09:10:36;1.23;;;0.80;;
30287;SDS011;17103;48.316;11.558;2023-07-22T09:13:03;1.63;;;1.05;;
30287;SDS011;17103;48.316;11.558;2023-07-22T09:15:29;1.40;;;0.82;;
30287;SDS011;17103;48.316;11.558;2023-07-22T09:17:59;1.60;;;0.95;;
30287;SDS011;17103;48.316;11.558;2023-07-22T09:20:25;1.90;;;0.80;;
30287;SDS011;17103;48.316;11.558;2023-07-22T09:22:53;2.03;;;1.10;;
30287;SDS011;17103;48.316;11.558;2023-07-22T09:25:20;1.95;;;0.90;;
30287;SDS011;17103;48.316;11.558;2023-07-22T09:27:47;3.88;;;0.90;;
30287;SDS011;17103;48.316;11.558;2023-07-22T09:33:00;2.10;;;1.17;;
30287;SDS011;17103;48.316;11.558;2023-07-22T09:35:50;4.65;;;1.00;;
30287;SDS011;17103;48.316;11.558;2023-07-22T09:38:22;1.13;;;0.70;;
30287;SDS011;17103;48.316;11.558;2023-07-22T09:40:49;1.67;;;0.85;;
30287;SDS011;17103;48.316;11.558;2023-07-22T09:43:15;2.53;;;0.80;;
30287;SDS011;17103;48.316;11.558;2023-07-22T09:45:41;1.30;;;1.10;;
30287;SDS011;17103;48.316;11.558;2023-07-22T09:48:07;1.70;;;0.70;;
30287;SDS011;17103;48.316;11.558;2023-07-22T09:50:34;1.48;;;0.90;;
30287;SDS011;17103;48.316;11.558;2023-07-22T09:53:01;4.70;;;1.25;;
30287;SDS011;17103;48.316;11.558;2023-07-22T09:55:28;4.80;;;0.90;;
30287;SDS011;17103;48.316;11.558;2023-07-22T09:57:57;2.67;;;0.95;;
30287;SDS011;17103;48.316;11.558;2023-07-22T10:00:25;6.13;;;1.23;;
30287;SDS011;17103;48.316;11.558;2023-07-22T10:02:53;2.08;;;1.00;;
30287;SDS011;17103;48.316;11.558;2023-07-22T10:05:22;1.48;;;0.77;;
30287;SDS011;17103;48.316;11.558;2023-07-22T10:07:49;2.83;;;0.80;;
30287;SDS011;17103;48.316;11.558;2023-07-22T10:10:20;2.35;;;1.35;;
30287;SDS011;17103;48.316;11.558;2023-07-22T10:13:00;1.27;;;0.80;;
30287;SDS011;17103;48.316;11.558;2023-07-22T10:15:27;1.25;;;0.90;;
30287;SDS011;17103;48.316;11.558;2023-07-22T10:17:54;1.40;;;0.85;;
30287;SDS011;17103;48.316;11.558;2023-07-22T10:20:21;1.17;;;0.80;;
30287;SDS011;17103;48.316;11.558;2023-07-22T10:22:48;1.42;;;0.77;;
30287;SDS011;17103;48.316;11.558;2023-07-22T10:25:15;1.77;;;1.10;;
30287;SDS011;17103;48.316;11.558;2023-07-22T10:27:42;2.00;;;0.70;;
30287;SDS011;17103;48.316;11.558;2023-07-22T10:30:09;3.50;;;1.10;;
30287;SDS011;17103;48.316;11.558;2023-07-22T10:32:40;1.65;;;0.77;;
30287;SDS011;17103;48.316;11.558;2023-07-22T10:37:56;1.95;;;0.75;;
30287;SDS011;17103;48.316;11.558;2023-07-22T10:40:50;1.98;;;0.90;;
30287;SDS011;17103;48.316;11.558;2023-07-22T10:43:18;1.13;;;0.65;;
30287;SDS011;17103;48.316;11.558;2023-07-22T10:45:50;1.37;;;0.70;;
30287;SDS011;17103;48.316;11.558;2023-07-22T10:48:17;2.63;;;0.73;;
30287;SDS011;17103;48.316;11.558;2023-07-22T10:53:19;1.25;;;0.77;;
30287;SDS011;17103;48.316;11.558;2023-07-22T11:04:07;2.22;;;0.90;;
30287;SDS011;17103;48.316;11.558;2023-07-22T11:06:33;1.95;;;0.52;;
30287;SDS011;17103;48.316;11.558;2023-07-22T11:09:01;1.63;;;0.70;;
30287;SDS011;17103;48.316;11.558;2023-07-22T11:11:49;2.75;;;0.80;;
30287;SDS011;17103;48.316;11.558;2023-07-22T11:14:17;3.40;;;1.00;;
30287;SDS011;17103;48.316;11.558;2023-07-22T11:16:46;1.50;;;0.65;;
30287;SDS011;17103;48.316;11.558;2023-07-22T11:19:13;1.65;;;0.70;;
30287;SDS011;17103;48.316;11.558;2023-07-22T11:21:40;2.17;;;0.73;;
30287;SDS011;17103;48.316;11.558;2023-07-22T11:24:06;1.20;;;0.75;;
30287;SDS011;17103;48.316;11.558;2023-07-22T11:26:33;3.30;;;0.80;;
30287;SDS011;17103;48.316;11.558;2023-07-22T11:29:02;1.52;;;0.95;;
30287;SDS011;17103;48.316;11.558;2023-07-22T11:34:14;2.10;;;0.80;;
30287;SDS011;17103;48.316;11.558;2023-07-22T11:36:47;3.78;;;0.70;;
30287;SDS011;17103;48.316;11.558;2023-07-22T11:39:16;5.55;;;0.80;;
30287;SDS011;17103;48.316;11.558;2023-07-22T11:41:43;1.90;;;1.00;;
30287;SDS011;17103;48.316;11.558;2023-07-22T11:44:10;1.63;;;0.80;;
30287;SDS011;17103;48.316;11.558;2023-07-22T11:46:59;1.08;;;0.73;;
30287;SDS011;17103;48.316;11.558;2023-07-22T11:49:35;2.15;;;0.88;;
30287;SDS011;17103;48.316;11.558;2023-07-22T11:52:07;1.95;;;0.75;;
30287;SDS011;17103;48.316;11.558;2023-07-22T11:54:43;1.50;;;0.80;;
30287;SDS011;17103;48.316;11.558;2023-07-22T11:59:45;1.23;;;0.60;;
30287;SDS011;17103;48.316;11.558;2023-07-22T12:02:16;2.10;;;0.95;;
30287;SDS011;17103;48.316;11.558;2023-07-22T12:07:23;2.00;;;0.70;;
30287;SDS011;17103;48.316;11.558;2023-07-22T12:09:54;4.20;;;1.05;;
30287;SDS011;17103;48.316;11.558;2023-07-22T12:12:30;1.90;;;0.88;;
30287;SDS011;17103;48.316;11.558;2023-07-22T12:15:10;1.52;;;0.93;;
30287;SDS011;17103;48.316;11.558;2023-07-22T12:17:43;1.08;;;0.80;;
30287;SDS011;17103;48.316;11.558;2023-07-22T12:20:13;1.63;;;0.80;;
30287;SDS011;17103;48.316;11.558;2023-07-22T12:22:40;3.00;;;0.90;;
30287;SDS011;17103;48.316;11.558;2023-07-22T12:25:06;1.45;;;0.73;;
30287;SDS011;17103;48.316;11.558;2023-07-22T12:27:32;1.65;;;1.02;;
30287;SDS011;17103;48.316;11.558;2023-07-22T12:29:58;1.35;;;0.80;;
30287;SDS011;17103;48.316;11.558;2023-07-22T12:32:23;1.70;;;1.02;;
30287;SDS011;17103;48.316;11.558;2023-07-22T12:34:49;1.75;;;0.80;;
30287;SDS011;17103;48.316;11.558;2023-07-22T12:37:15;3.42;;;1.02;;
30287;SDS011;17103;48.316;11.558;2023-07-22T12:39:40;1.08;;;0.70;;
30287;SDS011;17103;48.316;11.558;2023-07-22T12:42:06;1.77;;;0.80;;
30287;SDS011;17103;48.316;11.558;2023-07-22T12:44:33;2.22;;;0.73;;
30287;SDS011;17103;48.316;11.558;2023-07-22T12:46:58;1.33;;;0.77;;
30287;SDS011;17103;48.316;11.558;2023-07-22T12:49:24;1.38;;;0.70;;
30287;SDS011;17103;48.316;11.558;2023-07-22T12:51:50;1.27;;;0.88;;
30287;SDS011;17103;48.316;11.558;2023-07-22T12:54:16;26.02;;;2.15;;
30287;SDS011;17103;48.316;11.558;2023-07-22T12:56:41;1.50;;;0.80;;
30287;SDS011;17103;48.316;11.558;2023-07-22T12:59:08;1.42;;;0.95;;
30287;SDS011;17103;48.316;11.558;2023-07-22T13:01:34;0.95;;;0.70;;
30287;SDS011;17103;48.316;11.558;2023-07-22T13:04:03;1.98;;;0.90;;
30287;SDS011;17103;48.316;11.558;2023-07-22T13:06:29;2.00;;;0.98;;
30287;SDS011;17103;48.316;11.558;2023-07-22T13:08:54;3.55;;;0.90;;
30287;SDS011;17103;48.316;11.558;2023-07-22T13:11:20;1.83;;;0.70;;
30287;SDS011;17103;48.316;11.558;2023-07-22T13:13:46;1.42;;;1.00;;
30287;SDS011;17103;48.316;11.558;2023-07-22T13:16:11;1.08;;;0.60;;
30287;SDS011;17103;48.316;11.558;2023-07-22T13:18:37;1.30;;;1.00;;
30287;SDS011;17103;48.316;11.558;2023-07-22T13:21:02;1.23;;;0.70;;
30287;SDS011;17103;48.316;11.558;2023-07-22T13:23:28;1.75;;;1.30;;
30287;SDS011;17103;48.316;11.558;2023-07-22T13:25:53;1.40;;;0.95;;
30287;SDS011;17103;48.316;11.558;2023-07-22T13:28:19;2.00;;;0.88;;
30287;SDS011;17103;48.316;11.558;2023-07-22T13:30:44;1.27;;;0.85;;
30287;SDS011;17103;48.316;11.558;2023-07-22T13:33:10;1.10;;;0.80;;
30287;SDS011;17103;48.316;11.558;2023-07-22T13:35:36;1.58;;;0.70;;
30287;SDS011;17103;48.316;11.558;2023-07-22T13:38:01;2.08;;;0.77;;
30287;SDS011;17103;48.316;11.558;2023-07-22T13:40:27;4.63;;;0.90;;
30287;SDS011;17103;48.316;11.558;2023-07-22T13:42:52;2.83;;;0.70;;
30287;SDS011;17103;48.316;11.558;2023-07-22T13:45:18;1.30;;;0.90;;
30287;SDS011;17103;48.316;11.558;2023-07-22T13:47:44;4.47;;;1.00;;
30287;SDS011;17103;48.316;11.558;2023-07-22T13:50:09;2.03;;;0.93;;
30287;SDS011;17103;48.316;11.558;2023-07-22T13:52:35;1.63;;;0.82;;
30287;SDS011;17103;48.316;11.558;2023-07-22T13:55:01;1.48;;;0.80;;
30287;SDS011;17103;48.316;11.558;2023-07-22T13:57:27;2.03;;;1.00;;
30287;SDS011;17103;48.316;11.558;2023-07-22T13:59:53;1.33;;;0.77;;
30287;SDS011;17103;48.316;11.558;2023-07-22T14:02:18;1.70;;;1.17;;
30287;SDS011;17103;48.316;11.558;2023-07-22T14:04:44;2.63;;;0.88;;
30287;SDS011;17103;48.316;11.558;2023-07-22T14:07:10;3.47;;;1.00;;
30287;SDS011;17103;48.316;11.558;2023-07-22T14:09:35;1.20;;;0.95;;
30287;SDS011;17103;48.316;11.558;2023-07-22T14:12:01;2.25;;;1.00;;
30287;SDS011;17103;48.316;11.558;2023-07-22T14:14:28;1.80;;;1.02;;
30287;SDS011;17103;48.316;11.558;2023-07-22T14:16:56;3.28;;;1.00;;
30287;SDS011;17103;48.316;11.558;2023-07-22T14:19:23;1.92;;;0.90;;
30287;SDS011;17103;48.316;11.558;2023-07-22T14:21:49;1.42;;;1.10;;
30287;SDS011;17103;48.316;11.558;2023-07-22T14:24:14;1.75;;;0.93;;
30287;SDS011;17103;48.316;11.558;2023-07-22T14:26:40;2.75;;;1.40;;
30287;SDS011;17103;48.316;11.558;2023-07-22T14:29:06;3.30;;;0.90;;
30287;SDS011;17103;48.316;11.558;2023-07-22T14:31:32;1.55;;;1.15;;
30287;SDS011;17103;48.316;11.558;2023-07-22T14:33:57;2.83;;;1.35;;
30287;SDS011;17103;48.316;11.558;2023-07-22T14:36:23;2.08;;;0.93;;
30287;SDS011;17103;48.316;11.558;2023-07-22T14:38:49;1.23;;;0.98;;
30287;SDS011;17103;48.316;11.558;2023-07-22T14:41:15;1.38;;;0.93;;
30287;SDS011;17103;48.316;11.558;2023-07-22T14:43:41;1.80;;;1.17;;
30287;SDS011;17103;48.316;11.558;2023-07-22T14:46:06;3.80;;;1.20;;
30287;SDS011;17103;48.316;11.558;2023-07-22T14:48:32;3.45;;;1.48;;
30287;SDS011;17103;48.316;11.558;2023-07-22T14:50:57;2.45;;;1.40;;
30287;SDS011;17103;48.316;11.558;2023-07-22T14:53:23;5.05;;;1.00;;
30287;SDS011;17103;48.316;11.558;2023-07-22T14:55:48;4.05;;;1.10;;